createdAt,value
2024-04-21T00:08:21.988Z,6
2024-04-21T00:37:13.901Z,6
2024-04-21T01:06:21.826Z,6
2024-04-21T01:35:23.004Z,10
2024-04-21T02:04:30.269Z,11
2024-04-21T02:33:14.730Z,16
2024-04-21T03:02:01.141Z,17
2024-04-21T03:31:06.660Z,10
2024-04-21T04:00:17.200Z,10
2024-04-21T04:29:29.100Z,6
2024-04-21T04:58:40.151Z,8
2024-04-21T05:27:08.479Z,11
2024-04-21T05:56:22.402Z,11
2024-04-21T06:25:26.852Z,7
2024-04-21T06:54:54.296Z,10
2024-04-21T07:23:53.119Z,8
2024-04-21T07:52:57.362Z,8
2024-04-21T08:21:48.379Z,11
2024-04-21T08:50:58.983Z,10
2024-04-21T09:20:09.785Z,7
2024-04-21T09:49:38.687Z,7
2024-04-21T10:18:26.509Z,4
2024-04-21T10:47:29.992Z,3
2024-04-21T11:16:36.017Z,4
2024-04-21T11:45:43.601Z,4
2024-04-21T12:14:38.962Z,4
2024-04-21T12:43:50.759Z,4
2024-04-21T13:12:36.855Z,2
2024-04-21T13:41:17.574Z,3
2024-04-21T14:10:26.334Z,4
2024-04-21T14:39:28.659Z,6
2024-04-21T15:08:34.525Z,2
2024-04-21T15:37:23.439Z,4
2024-04-21T16:05:58.943Z,8
2024-04-21T16:35:06.549Z,4
2024-04-21T17:04:03.834Z,11
2024-04-21T17:32:45.578Z,7
2024-04-21T18:01:28.664Z,13
2024-04-21T18:30:15.902Z,11
2024-04-21T18:59:18.162Z,13
2024-04-21T19:28:29.224Z,19
2024-04-21T19:57:30.836Z,16
2024-04-21T20:26:29.918Z,17
2024-04-21T20:55:42.451Z,15
2024-04-21T21:24:06.269Z,17
2024-04-21T21:53:02.431Z,19
2024-04-21T22:22:13.067Z,20
2024-04-21T22:51:06.417Z,20
2024-04-21T23:20:13.784Z,19
2024-04-21T23:49:14.037Z,18
